Time,TemperatureF,DewpointF,PressureIn,WindDirection,WindDirectionDegrees,WindSpeedMPH,WindSpeedGustMPH,Humidity,HourlyPrecipIn,Conditions,Clouds,dailyrainin,SoftwareType,DateUTC
2013-08-26 00:14:00,69.0,62.0,30.26,North,0,0.0,1.0,78,0.00,,,0.00,,2013-08-26 04:14:00,
2013-08-26 00:53:00,68.0,61.0,30.26,North,0,0.0,5.0,79,0.00,,,0.00,,2013-08-26 04:53:00,
2013-08-26 01:03:00,68.0,61.0,30.26,North,0,0.0,5.0,79,0.00,,,0.00,,2013-08-26 05:03:00,
2013-08-26 01:23:00,67.0,61.0,30.24,North,0,0.0,5.0,80,0.00,,,0.00,,2013-08-26 05:23:00,
2013-08-26 01:52:00,66.0,60.0,30.26,North,0,0.0,2.0,81,0.00,,,0.00,,2013-08-26 05:52:00,
2013-08-26 02:02:00,66.0,60.0,30.26,North,0,0.0,2.0,81,0.00,,,0.00,,2013-08-26 06:02:00,
2013-08-26 02:12:00,66.0,60.0,30.26,North,0,0.0,2.0,81,0.00,,,0.00,,2013-08-26 06:12:00,
2013-08-26 02:22:00,66.0,60.0,30.25,North,0,0.0,0.0,81,0.00,,,0.00,,2013-08-26 06:22:00,
2013-08-26 02:32:00,66.0,60.0,30.25,North,0,0.0,0.0,81,0.00,,,0.00,,2013-08-26 06:32:00,
2013-08-26 02:52:00,65.0,59.0,30.25,North,0,0.0,4.0,82,0.00,,,0.00,,2013-08-26 06:52:00,
2013-08-26 03:02:00,65.0,59.0,30.25,North,0,0.0,4.0,82,0.00,,,0.00,,2013-08-26 07:02:00,
2013-08-26 03:52:00,64.0,59.0,30.24,North,0,0.0,1.0,83,0.00,,,0.00,,2013-08-26 07:52:00,
2013-08-26 04:22:00,64.0,59.0,30.24,North,0,0.0,0.0,84,0.00,,,0.00,,2013-08-26 08:22:00,
2013-08-26 04:52:00,63.0,58.0,30.24,North,0,0.0,0.0,84,0.00,,,0.00,,2013-08-26 08:52:00,
2013-08-26 05:02:00,63.0,58.0,30.24,North,0,0.0,0.0,84,0.00,,,0.00,,2013-08-26 09:02:00,
2013-08-26 08:22:00,63.0,59.0,30.24,North,0,0.0,0.0,86,0.00,,,0.00,,2013-08-26 12:22:00,
2013-08-26 08:52:00,64.0,59.0,30.23,North,0,0.0,5.0,85,0.00,,,0.00,,2013-08-26 12:52:00,
2013-08-26 09:22:00,67.0,60.0,30.23,NE,39,1.0,5.0,79,0.00,,,0.00,,2013-08-26 13:22:00,
2013-08-26 09:32:00,67.0,60.0,30.23,NE,39,1.0,5.0,79,0.00,,,0.00,,2013-08-26 13:32:00,
2013-08-26 09:52:00,69.0,61.0,30.24,NNE,21,2.0,7.0,76,0.00,,,0.00,,2013-08-26 13:52:00,
2013-08-26 10:22:00,73.0,62.0,30.24,East,90,1.0,7.0,69,0.00,,,0.00,,2013-08-26 14:22:00,
2013-08-26 10:32:00,73.0,62.0,30.24,East,90,1.0,7.0,69,0.00,,,0.00,,2013-08-26 14:32:00,
2013-08-26 10:52:00,77.0,64.0,30.25,North,0,0.0,6.0,64,0.00,,,0.00,,2013-08-26 14:52:00,
2013-08-26 11:12:00,77.0,63.0,30.24,North,0,0.0,4.0,62,0.00,,,0.00,,2013-08-26 15:12:00,
2013-08-26 11:22:00,77.0,63.0,30.24,North,0,0.0,4.0,62,0.00,,,0.00,,2013-08-26 15:22:00,
2013-08-26 11:35:00,77.0,63.0,30.24,North,0,0.0,4.0,62,0.00,,,0.00,,2013-08-26 15:35:00,
2013-08-26 11:59:00,80.0,64.0,30.24,East,82,1.0,4.0,58,0.00,,,0.00,,2013-08-26 15:59:00,
2013-08-26 16:22:00,84.0,67.0,30.14,East,91,1.0,6.0,56,0.00,,,0.00,,2013-08-26 20:22:00,
2013-08-26 17:22:00,84.0,64.0,30.12,ESE,117,1.0,5.0,52,0.00,,,0.00,,2013-08-26 21:22:00,
2013-08-26 17:55:00,84.0,66.0,30.12,North,0,0.0,6.0,54,0.00,,,0.00,,2013-08-26 21:55:00,
2013-08-26 18:26:00,82.0,64.0,30.11,North,0,0.0,6.0,55,0.00,,,0.00,,2013-08-26 22:26:00,
2013-08-26 18:53:00,82.0,66.0,30.11,North,0,0.0,0.0,58,0.00,,,0.00,,2013-08-26 22:53:00,
2013-08-26 19:12:00,81.0,65.0,30.11,North,0,0.0,0.0,59,0.00,,,0.00,,2013-08-26 23:12:00,
2013-08-26 19:22:00,81.0,65.0,30.11,North,0,0.0,0.0,59,0.00,,,0.00,,2013-08-26 23:22:00,
2013-08-26 19:42:00,79.0,65.0,30.11,North,0,0.0,0.0,63,0.00,,,0.00,,2013-08-26 23:42:00,
2013-08-26 19:52:00,79.0,65.0,30.11,North,0,0.0,0.0,63,0.00,,,0.00,,2013-08-26 23:52:00,
2013-08-26 20:22:00,76.0,64.0,30.10,North,0,0.0,0.0,67,0.00,,,0.00,,2013-08-27 00:22:00,
2013-08-26 20:52:00,73.0,63.0,30.11,North,0,0.0,0.0,72,0.00,,,0.00,,2013-08-27 00:52:00,
2013-08-26 21:22:00,71.0,63.0,30.11,North,0,0.0,0.0,75,0.00,,,0.00,,2013-08-27 01:22:00,
2013-08-26 21:52:00,71.0,63.0,30.11,North,0,0.0,0.0,76,0.00,,,0.00,,2013-08-27 01:52:00,
2013-08-26 22:02:00,71.0,63.0,30.11,North,0,0.0,0.0,76,0.00,,,0.00,,2013-08-27 02:02:00,
2013-08-26 22:22:00,70.0,63.0,30.12,North,0,0.0,0.0,79,0.00,,,0.00,,2013-08-27 02:22:00,
2013-08-26 22:52:00,69.0,63.0,30.12,North,0,0.0,0.0,80,0.00,,,0.00,,2013-08-27 02:52:00,
2013-08-26 23:58:00,68.0,62.0,30.12,North,0,0.0,0.0,82,0.00,,,0.00,,2013-08-27 03:58:00,